LHBP/BUD METAR and TAF weather

Enter ICAO airport designator
Station Type Date Time Source
LHBP METAR 2021/05/15 02:30 UTC NOAA

LHBP 150230Z 03003KT 6000 BCFG FEW002 04/03 Q1010 NOSIG


Station Type Date Time Source
LHBP Decoded METAR 2021/05/15 02:30 UTC NOAA

Budapest / Ferihegy, Hungary (LHBP) 47-26N 019-16E 185M
May 14, 2021 - 10:30 PM EDT / 2021.05.15 0230 UTC
Wind: from the NNE (030 degrees) at 3 MPH (3 KT):0
Visibility: 3 mile(s):0
Sky conditions: mostly clear
Weather: patches of fog
Temperature: 39 F (4 C)
Dew Point: 37 F (3 C)
Relative Humidity: 93%
Pressure (altimeter): 29.83 in. Hg (1010 hPa)
ob: LHBP 150230Z 03003KT 6000 BCFG FEW002 04/03 Q1010 NOSIG
cycle: 2

Station Type Date Time Source
LHBP TAF 2021/05/14 18:27 UTC NOAA

TAF TAF LHBP 141715Z 1418/1518 27007KT CAVOK
BECMG 1418/1420 VRB03KT
TEMPO 1500/1506 2000 BR
BECMG 1507/1510 SCT035
TEMPO 1513/1518 SHRA SCT030TCU

Example: see airport list